createdAt,value
2019-04-26T00:01:03.972Z,3.92
2019-04-26T00:03:32.695Z,4.30
2019-04-26T00:05:59.206Z,4.42
2019-04-26T00:08:25.982Z,4.12
2019-04-26T00:11:09.644Z,4.90
2019-04-26T00:13:41.818Z,5.47
2019-04-26T00:16:28.610Z,6.40
2019-04-26T00:18:55.236Z,7.00
2019-04-26T00:21:22.458Z,9.08
2019-04-26T00:23:49.228Z,7.03
2019-04-26T00:26:15.938Z,6.12
2019-04-26T00:28:42.420Z,6.30
2019-04-26T00:31:09.014Z,5.90
2019-04-26T00:33:35.783Z,5.78
2019-04-26T00:36:02.102Z,5.17
2019-04-26T00:38:28.556Z,5.15
2019-04-26T00:40:56.192Z,4.58
2019-04-26T00:43:24.027Z,4.72
2019-04-26T00:45:52.242Z,4.08
2019-04-26T00:48:23.060Z,5.62
2019-04-26T00:50:51.442Z,4.70
2019-04-26T00:53:19.653Z,5.03
2019-04-26T00:55:47.578Z,4.75
2019-04-26T00:58:15.259Z,4.40
2019-04-26T01:00:42.809Z,4.12
2019-04-26T01:03:09.079Z,5.50
2019-04-26T01:05:36.931Z,4.62
2019-04-26T01:08:03.146Z,4.45
2019-04-26T01:10:29.542Z,4.75
2019-04-26T01:12:55.798Z,4.55
2019-04-26T01:15:23.285Z,4.95
2019-04-26T01:17:50.722Z,4.60
2019-04-26T01:20:20.400Z,4.22
2019-04-26T01:22:53.955Z,4.75
2019-04-26T01:25:33.070Z,4.60
2019-04-26T01:28:00.399Z,4.62
2019-04-26T01:30:30.663Z,4.28
2019-04-26T01:32:57.110Z,4.45
2019-04-26T01:35:24.199Z,4.35
2019-04-26T01:37:51.886Z,4.28
2019-04-26T01:40:21.080Z,4.40
2019-04-26T01:42:53.366Z,4.58
2019-04-26T01:45:27.867Z,4.78
2019-04-26T01:47:58.159Z,4.50
2019-04-26T01:50:27.399Z,4.53
2019-04-26T01:52:55.980Z,4.83
2019-04-26T01:55:24.990Z,5.33
2019-04-26T01:57:52.428Z,4.60
2019-04-26T02:00:38.573Z,5.25
2019-04-26T02:03:13.304Z,5.25
2019-04-26T02:05:39.529Z,5.00
2019-04-26T02:08:05.931Z,5.50
2019-04-26T02:10:32.785Z,6.00
2019-04-26T02:12:59.705Z,5.35
2019-04-26T02:15:29.302Z,5.78
2019-04-26T02:17:57.959Z,4.92
2019-04-26T02:20:54.079Z,6.85
2019-04-26T02:23:32.109Z,5.87
2019-04-26T02:26:00.951Z,6.03
2019-04-26T02:28:28.277Z,6.05
2019-04-26T02:30:54.852Z,6.47
2019-04-26T02:33:21.962Z,5.37
2019-04-26T02:35:48.439Z,6.22
2019-04-26T02:38:15.039Z,6.00
2019-04-26T02:40:41.909Z,6.00
2019-04-26T02:43:08.436Z,6.47
2019-04-26T02:45:49.357Z,5.72
2019-04-26T02:48:32.184Z,5.83
2019-04-26T02:51:14.742Z,5.00
2019-04-26T02:53:53.670Z,5.37
2019-04-26T02:56:41.742Z,5.17
2019-04-26T02:59:11.830Z,5.62
2019-04-26T03:04:06.870Z,5.80
2019-04-26T03:06:34.926Z,6.28
2019-04-26T03:09:06.594Z,6.08
2019-04-26T03:11:37.103Z,5.55
2019-04-26T03:14:09.268Z,6.47
2019-04-26T03:16:50.440Z,5.53
2019-04-26T03:19:22.510Z,5.85
2019-04-26T03:22:07.600Z,5.83
2019-04-26T03:24:42.465Z,5.55
2019-04-26T03:27:24.687Z,5.95
2019-04-26T03:30:22.124Z,5.72
2019-04-26T03:32:50.790Z,6.40
2019-04-26T03:35:41.133Z,6.72
2019-04-26T03:38:20.248Z,7.00
2019-04-26T03:41:09.837Z,6.25
2019-04-26T03:43:56.678Z,5.75
2019-04-26T03:46:35.107Z,6.75
2019-04-26T03:49:18.357Z,7.05
2019-04-26T03:52:11.442Z,7.97
2019-04-26T03:54:41.053Z,6.83
2019-04-26T03:57:22.150Z,7.45
2019-04-26T04:00:00.317Z,8.10
2019-04-26T04:02:32.443Z,7.40
2019-04-26T04:05:28.997Z,7.50
2019-04-26T04:07:58.729Z,7.87
2019-04-26T04:10:41.963Z,7.10
2019-04-26T04:13:17.231Z,9.60
2019-04-26T04:15:48.484Z,7.67
2019-04-26T04:18:27.750Z,7.95
2019-04-26T04:21:28.624Z,9.25
2019-04-26T04:24:01.855Z,7.03
2019-04-26T04:26:41.659Z,8.03
2019-04-26T04:29:40.075Z,7.03
2019-04-26T04:31:59.629Z,7.58
2019-04-26T04:34:44.011Z,8.45
2019-04-26T04:37:16.339Z,7.80
2019-04-26T04:39:53.545Z,6.78
2019-04-26T04:42:48.099Z,7.00
2019-04-26T04:45:32.875Z,6.87
2019-04-26T04:48:31.843Z,6.67
2019-04-26T04:51:35.173Z,7.15
2019-04-26T04:54:20.232Z,6.78
2019-04-26T04:57:08.406Z,7.22
2019-04-26T04:59:59.745Z,6.03
2019-04-26T05:02:46.668Z,6.78
2019-04-26T05:06:07.354Z,6.42
2019-04-26T05:08:51.579Z,6.25
2019-04-26T05:11:28.331Z,6.55
2019-04-26T05:14:15.230Z,6.05
2019-04-26T05:17:03.646Z,6.87
2019-04-26T05:19:42.663Z,6.87
2019-04-26T05:22:39.907Z,6.37
2019-04-26T05:25:40.314Z,8.28
2019-04-26T05:28:17.759Z,5.85
2019-04-26T05:31:13.775Z,6.20
2019-04-26T05:33:47.752Z,5.00
2019-04-26T05:36:34.046Z,6.28
2019-04-26T05:39:09.840Z,6.30
2019-04-26T05:42:10.837Z,5.33
2019-04-26T05:45:20.970Z,4.85
2019-04-26T05:48:12.920Z,5.10
2019-04-26T05:51:06.341Z,5.80
2019-04-26T05:54:02.501Z,5.37
2019-04-26T05:56:54.290Z,4.72
2019-04-26T05:59:27.720Z,6.37
2019-04-26T06:02:23.918Z,4.87
2019-04-26T06:05:14.147Z,4.58
2019-04-26T06:08:08.806Z,5.65
2019-04-26T06:10:43.739Z,5.22
2019-04-26T06:13:49.010Z,4.12
2019-04-26T06:16:37.776Z,5.30
2019-04-26T06:19:43.424Z,4.50
2019-04-26T06:22:42.418Z,4.15
2019-04-26T06:25:35.517Z,5.05
2019-04-26T06:28:28.294Z,4.87
2019-04-26T06:31:13.318Z,3.87
2019-04-26T06:34:01.331Z,4.08
2019-04-26T06:36:33.287Z,3.67
2019-04-26T06:39:14.139Z,3.67
2019-04-26T06:42:08.293Z,3.72
2019-04-26T06:45:16.377Z,2.92
2019-04-26T06:48:06.127Z,3.08
2019-04-26T06:50:41.439Z,3.60
2019-04-26T06:53:29.467Z,3.52
2019-04-26T06:56:18.019Z,3.22
2019-04-26T06:59:01.161Z,3.10
2019-04-26T07:01:40.299Z,3.02
2019-04-26T07:04:10.393Z,3.05
2019-04-26T07:06:59.504Z,2.40
2019-04-26T07:09:46.672Z,3.15
2019-04-26T07:12:30.521Z,3.70
2019-04-26T07:15:12.437Z,2.70
2019-04-26T07:18:04.422Z,2.70
2019-04-26T07:20:36.695Z,2.83
2019-04-26T07:23:26.562Z,2.77
2019-04-26T07:26:14.101Z,2.30
2019-04-26T07:28:53.354Z,2.70
2019-04-26T07:31:29.173Z,2.20
2019-04-26T07:34:35.893Z,2.12
2019-04-26T07:37:22.517Z,2.20
2019-04-26T07:45:56.424Z,2.50
2019-04-26T07:48:32.130Z,2.40
2019-04-26T07:51:21.955Z,2.00
2019-04-26T07:54:08.951Z,1.55
2019-04-26T07:56:55.848Z,2.20
2019-04-26T07:59:45.164Z,4.42
2019-04-26T08:02:26.032Z,4.08
2019-04-26T08:05:00.133Z,2.17
2019-04-26T08:07:33.342Z,2.10
2019-04-26T08:10:09.950Z,1.90
2019-04-26T08:12:40.511Z,2.22
2019-04-26T08:15:13.465Z,1.82
2019-04-26T08:17:51.448Z,1.95
2019-04-26T08:20:32.019Z,1.92
2019-04-26T08:23:02.655Z,2.65
2019-04-26T08:25:32.723Z,1.80
2019-04-26T08:28:01.833Z,2.05
2019-04-26T08:30:30.878Z,1.82
2019-04-26T08:33:02.094Z,2.02
2019-04-26T08:35:31.901Z,2.33
2019-04-26T08:38:01.978Z,1.90
2019-04-26T08:40:31.290Z,2.50
2019-04-26T08:46:02.933Z,2.10
2019-04-26T08:48:29.248Z,2.05
2019-04-26T08:51:03.282Z,2.52
2019-04-26T08:53:32.971Z,2.17
2019-04-26T08:58:30.739Z,2.40
2019-04-26T09:01:05.641Z,1.80
2019-04-26T09:03:55.662Z,1.95
2019-04-26T09:06:41.952Z,2.98
2019-04-26T09:09:14.400Z,1.85
2019-04-26T09:11:40.926Z,1.77
2019-04-26T09:14:07.797Z,1.85
2019-04-26T09:16:34.274Z,1.32
2019-04-26T09:19:01.319Z,1.87
2019-04-26T09:21:29.496Z,1.57
2019-04-26T09:24:12.886Z,1.40
2019-04-26T09:26:42.395Z,2.95
2019-04-26T09:29:26.297Z,1.70
2019-04-26T09:31:54.597Z,1.42
2019-04-26T09:34:23.599Z,1.72
2019-04-26T09:36:50.095Z,2.47
2019-04-26T09:39:17.171Z,1.87
2019-04-26T09:41:43.541Z,1.27
2019-04-26T09:44:11.947Z,1.47
2019-04-26T09:46:52.899Z,1.57
2019-04-26T09:49:19.413Z,1.80
2019-04-26T09:51:45.756Z,2.50
2019-04-26T09:54:12.041Z,1.90
2019-04-26T09:56:38.263Z,1.50
2019-04-26T09:59:05.622Z,1.20
2019-04-26T10:01:33.213Z,1.62
2019-04-26T10:03:59.472Z,1.45
2019-04-26T10:06:26.236Z,1.55
2019-04-26T10:08:54.123Z,1.60
2019-04-26T10:11:22.296Z,1.15
2019-04-26T10:13:50.438Z,1.05
2019-04-26T10:16:18.613Z,1.52
2019-04-26T10:18:46.755Z,1.02
2019-04-26T10:21:13.040Z,1.65
2019-04-26T10:23:39.279Z,2.42
2019-04-26T10:26:06.236Z,1.32
2019-04-26T10:28:32.500Z,1.62
2019-04-26T10:30:58.869Z,1.07
2019-04-26T10:33:25.236Z,1.17
2019-04-26T10:35:52.634Z,1.50
2019-04-26T10:38:23.698Z,1.77
2019-04-26T10:40:47.887Z,1.42
2019-04-26T10:43:14.252Z,1.07
2019-04-26T10:45:40.695Z,1.10
2019-04-26T10:48:09.724Z,1.30
2019-04-26T10:50:34.999Z,1.35
2019-04-26T10:53:18.319Z,1.00
2019-04-26T10:56:02.980Z,0.95
2019-04-26T10:58:36.332Z,1.30
2019-04-26T11:01:06.635Z,1.30
2019-04-26T11:03:34.990Z,1.67
2019-04-26T11:06:00.977Z,1.12
2019-04-26T11:08:28.148Z,1.27
2019-04-26T11:10:54.454Z,1.62
2019-04-26T11:13:20.698Z,1.40
2019-04-26T11:15:47.165Z,0.80
2019-04-26T11:18:13.513Z,1.05
2019-04-26T11:20:41.521Z,1.00
2019-04-26T11:23:08.168Z,0.80
2019-04-26T11:25:35.960Z,1.10
2019-04-26T11:28:03.401Z,1.12
2019-04-26T11:30:29.651Z,0.88
2019-04-26T11:32:55.908Z,1.00
2019-04-26T11:35:22.200Z,1.25
2019-04-26T11:37:50.727Z,1.15
2019-04-26T11:40:16.576Z,1.22
2019-04-26T11:42:45.645Z,1.30
2019-04-26T11:45:14.768Z,0.80
2019-04-26T11:47:54.364Z,1.20
2019-04-26T11:50:12.396Z,1.00
2019-04-26T11:52:37.425Z,0.90
2019-04-26T11:55:05.188Z,0.80
2019-04-26T11:57:31.438Z,1.15
2019-04-26T11:59:57.709Z,1.17
2019-04-26T12:02:24.112Z,0.55
2019-04-26T12:04:55.323Z,0.80
2019-04-26T12:07:23.583Z,1.00
2019-04-26T12:09:57.951Z,1.10
2019-04-26T12:12:25.300Z,0.95
2019-04-26T12:14:51.573Z,1.40
2019-04-26T12:17:17.837Z,0.82
2019-04-26T12:19:44.080Z,0.75
2019-04-26T12:22:10.448Z,0.70
2019-04-26T12:24:38.605Z,1.00
2019-04-26T12:27:05.020Z,1.35
2019-04-26T12:29:31.320Z,0.80
2019-04-26T12:31:57.701Z,0.70
2019-04-26T12:34:23.926Z,0.85
2019-04-26T12:36:50.208Z,1.02
2019-04-26T12:39:17.240Z,0.70
2019-04-26T12:41:43.672Z,1.02
2019-04-26T12:44:10.455Z,0.80
2019-04-26T12:46:44.257Z,1.30
2019-04-26T12:49:10.572Z,0.98
2019-04-26T12:51:38.316Z,1.02
2019-04-26T12:54:08.261Z,0.80
2019-04-26T12:56:32.855Z,0.75
2019-04-26T12:58:59.154Z,0.80
2019-04-26T13:01:25.524Z,0.72
2019-04-26T13:04:04.879Z,0.62
2019-04-26T13:06:33.945Z,0.85
2019-04-26T13:09:00.193Z,0.75
2019-04-26T13:11:28.415Z,0.85
2019-04-26T13:13:59.434Z,0.80
2019-04-26T13:16:30.604Z,0.68
2019-04-26T13:18:56.838Z,0.82
2019-04-26T13:21:24.380Z,0.80
2019-04-26T13:23:50.612Z,0.90
2019-04-26T13:26:16.875Z,0.90
2019-04-26T13:28:44.048Z,0.70
2019-04-26T13:31:10.367Z,0.75
2019-04-26T13:33:36.745Z,0.80
2019-04-26T13:36:03.478Z,1.17
2019-04-26T13:38:30.072Z,0.90
2019-04-26T13:40:59.689Z,1.32
2019-04-26T13:43:27.117Z,0.85
2019-04-26T13:45:54.440Z,0.82
2019-04-26T13:48:31.741Z,0.78
2019-04-26T13:51:01.280Z,0.78
2019-04-26T13:53:28.062Z,0.72
2019-04-26T13:55:54.340Z,0.93
2019-04-26T13:58:25.310Z,0.80
2019-04-26T14:00:48.750Z,0.98
2019-04-26T14:03:15.079Z,0.70
2019-04-26T14:05:41.335Z,1.45
2019-04-26T14:08:07.760Z,0.60
2019-04-26T14:10:34.035Z,1.00
2019-04-26T14:13:00.571Z,0.80
2019-04-26T14:15:26.836Z,0.80
2019-04-26T14:17:53.192Z,0.95
2019-04-26T14:20:23.438Z,0.70
2019-04-26T14:22:49.500Z,0.80
2019-04-26T14:25:17.643Z,1.22
2019-04-26T14:27:50.029Z,0.50
2019-04-26T14:30:14.854Z,0.50
2019-04-26T14:32:42.704Z,0.98
2019-04-26T14:35:11.544Z,0.62
2019-04-26T14:37:37.673Z,0.68
2019-04-26T14:40:16.710Z,0.60
2019-04-26T14:42:38.160Z,1.20
2019-04-26T14:45:06.129Z,0.50
2019-04-26T14:47:31.998Z,0.65
2019-04-26T14:49:59.327Z,1.00
2019-04-26T14:52:27.787Z,1.72
2019-04-26T14:54:54.036Z,0.82
2019-04-26T14:57:28.423Z,0.40
2019-04-26T14:59:50.255Z,0.70
2019-04-26T15:02:35.112Z,0.80
2019-04-26T15:05:09.198Z,0.57
2019-04-26T15:07:35.041Z,0.42
2019-04-26T15:10:02.840Z,0.60
2019-04-26T15:12:29.447Z,0.70
2019-04-26T15:14:56.790Z,1.87
2019-04-26T15:17:26.451Z,0.60
2019-04-26T15:19:51.628Z,0.80
2019-04-26T15:22:17.913Z,0.70
2019-04-26T15:24:44.149Z,0.62
2019-04-26T15:27:10.420Z,0.70
2019-04-26T15:29:36.731Z,0.80
2019-04-26T15:32:05.225Z,0.70
2019-04-26T15:34:31.251Z,1.05
2019-04-26T15:36:57.495Z,0.80
2019-04-26T15:39:33.018Z,0.70
2019-04-26T15:42:03.096Z,0.75
2019-04-26T15:44:43.457Z,0.80
2019-04-26T15:47:17.631Z,1.07
2019-04-26T15:49:48.812Z,0.80
2019-04-26T15:52:15.055Z,0.90
2019-04-26T15:54:42.477Z,0.72
2019-04-26T15:57:09.191Z,0.80
2019-04-26T15:59:35.435Z,0.70
2019-04-26T16:02:02.569Z,0.85
2019-04-26T16:04:28.903Z,1.22
2019-04-26T16:06:55.171Z,0.80
2019-04-26T16:09:23.026Z,0.72
2019-04-26T16:11:50.555Z,0.80
2019-04-26T16:14:16.858Z,0.62
2019-04-26T16:16:43.106Z,0.85
2019-04-26T16:19:09.395Z,0.70
2019-04-26T16:21:35.599Z,0.70
2019-04-26T16:24:02.810Z,0.70
2019-04-26T16:26:29.111Z,0.80
2019-04-26T16:29:03.488Z,0.80
2019-04-26T16:31:32.231Z,0.80
2019-04-26T16:34:16.808Z,0.60
2019-04-26T16:36:45.248Z,0.62
2019-04-26T16:39:13.113Z,0.70
2019-04-26T16:41:39.787Z,0.70
2019-04-26T16:44:06.143Z,0.47
2019-04-26T16:46:33.326Z,0.60
2019-04-26T16:49:02.408Z,0.72
2019-04-26T16:51:28.020Z,0.60
2019-04-26T16:54:06.813Z,0.82
2019-04-26T16:56:26.606Z,0.65
2019-04-26T16:58:54.748Z,0.60
2019-04-26T17:01:20.015Z,0.70
2019-04-26T17:03:48.198Z,0.60
2019-04-26T17:06:14.582Z,1.37
2019-04-26T17:08:49.160Z,0.50
2019-04-26T17:11:08.935Z,0.72
2019-04-26T17:13:48.225Z,0.65
2019-04-26T17:16:03.364Z,0.70
2019-04-26T17:18:29.601Z,0.88
2019-04-26T17:20:55.841Z,0.70
2019-04-26T17:23:30.315Z,0.88
2019-04-26T17:26:13.331Z,0.50
2019-04-26T17:28:39.986Z,0.53
2019-04-26T17:31:06.354Z,0.65
2019-04-26T17:33:32.831Z,0.62
2019-04-26T17:35:59.072Z,0.65
2019-04-26T17:38:25.556Z,0.70
2019-04-26T17:40:51.779Z,0.50
2019-04-26T17:43:18.017Z,0.60
2019-04-26T17:45:44.309Z,0.80
2019-04-26T17:48:11.591Z,0.75
2019-04-26T17:50:38.972Z,1.20
2019-04-26T17:53:10.667Z,0.78
2019-04-26T17:55:35.061Z,0.60
2019-04-26T17:58:11.828Z,0.88
2019-04-26T18:00:45.600Z,0.60
2019-04-26T18:03:03.545Z,0.70
2019-04-26T18:05:41.936Z,0.60
2019-04-26T18:07:59.648Z,0.62
2019-04-26T18:10:26.178Z,0.47
2019-04-26T18:12:52.414Z,0.88
2019-04-26T18:15:19.518Z,0.68
2019-04-26T18:18:04.944Z,0.60
2019-04-26T18:20:43.064Z,0.60
2019-04-26T18:23:15.346Z,0.70
2019-04-26T18:25:41.346Z,1.17
2019-04-26T18:28:08.740Z,0.68
2019-04-26T18:30:36.332Z,0.88
2019-04-26T18:33:02.967Z,0.90
2019-04-26T18:35:29.432Z,0.80
2019-04-26T18:37:55.688Z,0.60
2019-04-26T18:40:23.097Z,1.17
2019-04-26T18:42:49.898Z,0.90
2019-04-26T18:45:21.410Z,0.80
2019-04-26T18:47:45.320Z,0.93
2019-04-26T18:50:14.076Z,0.80
2019-04-26T18:52:42.215Z,1.35
2019-04-26T18:55:16.459Z,5.53
2019-04-26T18:57:43.067Z,5.65
2019-04-26T19:00:11.323Z,6.00
2019-04-26T19:02:37.550Z,2.20
2019-04-26T19:05:05.223Z,5.47
2019-04-26T19:07:32.669Z,10.03
2019-04-26T19:10:04.667Z,7.97
2019-04-26T19:12:28.727Z,2.20
2019-04-26T19:15:07.559Z,5.22
2019-04-26T19:17:35.819Z,1.45
2019-04-26T19:20:12.502Z,7.10
2019-04-26T19:22:41.550Z,2.90
2019-04-26T19:25:18.933Z,3.55
2019-04-26T19:27:47.299Z,2.95
2019-04-26T19:30:09.069Z,3.77
2019-04-26T19:32:35.377Z,4.40
2019-04-26T19:35:07.096Z,4.05
2019-04-26T19:37:36.770Z,1.47
2019-04-26T19:40:02.864Z,1.52
2019-04-26T19:42:30.836Z,1.57
2019-04-26T19:45:11.900Z,1.60
2019-04-26T19:47:29.592Z,1.60
2019-04-26T19:50:09.570Z,1.70
2019-04-26T19:52:53.527Z,1.50
2019-04-26T19:55:27.570Z,1.37
2019-04-26T19:58:04.775Z,1.72
2019-04-26T20:00:32.202Z,1.40
2019-04-26T20:02:59.150Z,1.82
2019-04-26T20:05:25.374Z,1.62
2019-04-26T20:07:51.964Z,1.45
2019-04-26T20:10:18.439Z,1.40
2019-04-26T20:12:44.698Z,2.55
2019-04-26T20:15:24.919Z,1.80
2019-04-26T20:17:39.249Z,1.37
2019-04-26T20:20:16.789Z,1.50
2019-04-26T20:22:33.496Z,1.42
2019-04-26T20:24:59.991Z,2.10
2019-04-26T20:27:27.871Z,0.98
2019-04-26T20:29:54.423Z,1.27
2019-04-26T20:32:23.925Z,1.27
2019-04-26T20:34:52.192Z,1.05
2019-04-26T20:37:22.866Z,1.20
2019-04-26T20:39:46.512Z,1.40
2019-04-26T20:42:12.882Z,1.35
2019-04-26T20:44:50.447Z,1.72
2019-04-26T20:47:07.557Z,1.32
2019-04-26T20:49:47.192Z,1.35
2019-04-26T20:52:04.143Z,1.75
2019-04-26T20:54:31.581Z,1.77
2019-04-26T20:56:58.122Z,1.72
2019-04-26T20:59:24.780Z,2.90
2019-04-26T21:02:03.011Z,1.70
2019-04-26T21:04:35.070Z,1.90
2019-04-26T21:06:47.551Z,1.57
2019-04-26T21:09:14.682Z,1.95
2019-04-26T21:11:41.321Z,2.00
2019-04-26T21:14:08.689Z,2.10
2019-04-26T21:16:35.265Z,2.22
2019-04-26T21:19:01.913Z,1.72
2019-04-26T21:21:28.212Z,2.67
2019-04-26T21:23:54.825Z,1.60
2019-04-26T21:26:29.686Z,1.57
2019-04-26T21:29:20.420Z,2.10
2019-04-26T21:34:29.166Z,2.25
2019-04-26T21:37:17.216Z,1.90
2019-04-26T21:39:49.850Z,1.30
2019-04-26T21:42:17.204Z,1.92
2019-04-26T21:44:51.137Z,2.05
2019-04-26T21:47:13.518Z,2.20
2019-04-26T21:49:39.998Z,2.05
2019-04-26T21:52:06.497Z,2.17
2019-04-26T21:54:33.028Z,1.75
2019-04-26T21:56:59.477Z,2.35
2019-04-26T21:59:26.027Z,2.52
2019-04-26T22:01:58.845Z,2.75
2019-04-26T22:04:20.953Z,2.17
2019-04-26T22:06:47.604Z,1.75
2019-04-26T22:09:36.714Z,1.65
2019-04-26T22:12:03.665Z,2.77
2019-04-26T22:14:31.880Z,2.05
2019-04-26T22:17:01.988Z,2.42
2019-04-26T22:19:32.557Z,1.70
2019-04-26T22:22:10.395Z,2.42
2019-04-26T22:24:41.199Z,2.00
2019-04-26T22:27:07.435Z,1.75
2019-04-26T22:29:33.870Z,1.80
2019-04-26T22:32:00.333Z,2.52
2019-04-26T22:34:26.904Z,1.57
2019-04-26T22:36:53.682Z,1.90
2019-04-26T22:39:20.193Z,2.10
2019-04-26T22:41:46.784Z,2.27
2019-04-26T22:44:15.324Z,1.52
2019-04-26T22:46:47.213Z,1.90
2019-04-26T22:49:13.366Z,2.27
2019-04-26T22:51:39.924Z,1.92
2019-04-26T22:54:06.582Z,1.95
2019-04-26T22:56:37.125Z,1.87
2019-04-26T22:59:04.783Z,1.70
2019-04-26T23:01:30.644Z,1.95
2019-04-26T23:03:57.181Z,1.67
2019-04-26T23:06:23.852Z,1.82
2019-04-26T23:08:50.456Z,2.02
2019-04-26T23:11:17.171Z,1.60
2019-04-26T23:14:03.888Z,2.92
2019-04-26T23:16:40.490Z,1.52
2019-04-26T23:19:15.334Z,1.55
2019-04-26T23:21:45.491Z,1.70
2019-04-26T23:24:11.491Z,2.00
2019-04-26T23:26:41.578Z,1.80
2019-04-26T23:29:08.580Z,1.60
2019-04-26T23:31:37.510Z,1.82
2019-04-26T23:34:03.578Z,2.20
2019-04-26T23:36:30.184Z,2.77
2019-04-26T23:38:56.901Z,1.50
2019-04-26T23:41:23.715Z,2.02
2019-04-26T23:43:50.623Z,1.77
2019-04-26T23:46:18.908Z,1.70
2019-04-26T23:48:48.829Z,2.47
2019-04-26T23:51:13.312Z,2.50
2019-04-26T23:53:39.920Z,2.22
2019-04-26T23:56:06.789Z,4.08
2019-04-26T23:58:33.194Z,1.92
